KPCD

Perryville Regional Airport

Perryville, Missouri, USA
METAR KPCD 170015Z AUTO 00000KT 10SM CLR 06/04 A3020 RMK AO2 T00560039
Observed Flight Rules
Dec-17 @ 00:15 UTC (7 minutes ago) Visual Flight Rules
Visibility Clouds
10 miles
  • Clear skies
Temperatures Readings
Current 6°C / 43°F
Dewpoint 4°C / 39°F
Humidity 87%
Altimeter 30.2" Hg
Pressure 1023 hPa
Elevation 113
METAR KPCD 170015Z AUTO 00000KT 10SM CLR 06/04 A3020 RMK AO2 T00560039
Observed Flight Rules
Dec-17 @ 00:15 UTC
(7 minutes ago)
VFR
Clouds
  • Clear skies
Temperature Dewpoint
6°C / 43°F 4°C / 39°F
Humidity Altimeter Pressure
87% 30.2" Hg 1023 hPa